sensor_id;sensor_type;location;lat;lon;timestamp;pressure;altitude;pressure_sealevel;temperature
64790;BMP280;51223;51.816;5.862;2022-12-10T00:01:30;100791.50;;;4.84
64790;BMP280;51223;51.816;5.862;2022-12-10T00:04:00;100791.38;;;4.15
64790;BMP280;51223;51.816;5.862;2022-12-10T00:06:29;100793.09;;;4.34
64790;BMP280;51223;51.816;5.862;2022-12-10T00:08:55;100793.88;;;3.57
64790;BMP280;51223;51.816;5.862;2022-12-10T00:11:22;100794.22;;;3.18
64790;BMP280;51223;51.816;5.862;2022-12-10T00:13:49;100794.09;;;3.71
64790;BMP280;51223;51.816;5.862;2022-12-10T00:16:17;100792.06;;;3.68
64790;BMP280;51223;51.816;5.862;2022-12-10T00:18:43;100783.06;;;4.19
64790;BMP280;51223;51.816;5.862;2022-12-10T00:21:14;100792.88;;;4.53
64790;BMP280;51223;51.816;5.862;2022-12-10T00:23:42;100798.81;;;3.67
64790;BMP280;51223;51.816;5.862;2022-12-10T00:26:16;100798.88;;;4.11
64790;BMP280;51223;51.816;5.862;2022-12-10T00:28:43;100795.53;;;4.91
64790;BMP280;51223;51.816;5.862;2022-12-10T00:31:20;100804.75;;;5.16
64790;BMP280;51223;51.816;5.862;2022-12-10T00:33:50;100803.00;;;2.94
64790;BMP280;51223;51.816;5.862;2022-12-10T00:36:20;100794.69;;;4.86
64790;BMP280;51223;51.816;5.862;2022-12-10T00:38:47;100791.75;;;4.14
64790;BMP280;51223;51.816;5.862;2022-12-10T00:41:14;100792.22;;;4.74
64790;BMP280;51223;51.816;5.862;2022-12-10T00:43:40;100790.44;;;4.45
64790;BMP280;51223;51.816;5.862;2022-12-10T00:46:07;100797.59;;;4.49
64790;BMP280;51223;51.816;5.862;2022-12-10T00:48:33;100795.59;;;3.05
64790;BMP280;51223;51.816;5.862;2022-12-10T00:51:15;100794.72;;;4.94
64790;BMP280;51223;51.816;5.862;2022-12-10T00:53:42;100791.47;;;4.30
64790;BMP280;51223;51.816;5.862;2022-12-10T00:56:10;100800.22;;;4.32
64790;BMP280;51223;51.816;5.862;2022-12-10T00:58:37;100798.94;;;3.48
64790;BMP280;51223;51.816;5.862;2022-12-10T01:01:11;100804.56;;;2.95
64790;BMP280;51223;51.816;5.862;2022-12-10T01:03:38;100802.31;;;4.42
64790;BMP280;51223;51.816;5.862;2022-12-10T01:08:53;100804.91;;;4.72
64790;BMP280;51223;51.816;5.862;2022-12-10T01:11:20;100797.59;;;5.08
64790;BMP280;51223;51.816;5.862;2022-12-10T01:13:47;100792.94;;;5.33
64790;BMP280;51223;51.816;5.862;2022-12-10T01:16:15;100794.69;;;5.73
64790;BMP280;51223;51.816;5.862;2022-12-10T01:18:42;100801.50;;;6.15
64790;BMP280;51223;51.816;5.862;2022-12-10T01:21:11;100804.03;;;4.61
64790;BMP280;51223;51.816;5.862;2022-12-10T01:23:39;100798.91;;;4.66
64790;BMP280;51223;51.816;5.862;2022-12-10T01:26:08;100802.28;;;6.01
64790;BMP280;51223;51.816;5.862;2022-12-10T01:28:36;100804.28;;;4.93
64790;BMP280;51223;51.816;5.862;2022-12-10T01:31:03;100796.69;;;4.38
64790;BMP280;51223;51.816;5.862;2022-12-10T01:33:30;100800.63;;;5.79
64790;BMP280;51223;51.816;5.862;2022-12-10T01:36:03;100801.25;;;5.22
64790;BMP280;51223;51.816;5.862;2022-12-10T01:38:29;100809.09;;;5.06
64790;BMP280;51223;51.816;5.862;2022-12-10T01:40:55;100807.22;;;5.25
64790;BMP280;51223;51.816;5.862;2022-12-10T01:43:21;100811.09;;;5.13
64790;BMP280;51223;51.816;5.862;2022-12-10T01:45:47;100816.28;;;3.71
64790;BMP280;51223;51.816;5.862;2022-12-10T01:48:13;100809.28;;;4.25
64790;BMP280;51223;51.816;5.862;2022-12-10T01:50:39;100814.38;;;2.66
64790;BMP280;51223;51.816;5.862;2022-12-10T01:53:04;100825.59;;;4.30
64790;BMP280;51223;51.816;5.862;2022-12-10T01:55:44;100814.09;;;3.58
64790;BMP280;51223;51.816;5.862;2022-12-10T01:58:11;100818.50;;;4.36
64790;BMP280;51223;51.816;5.862;2022-12-10T02:00:44;100819.78;;;4.46
64790;BMP280;51223;51.816;5.862;2022-12-10T02:03:19;100812.38;;;5.30
64790;BMP280;51223;51.816;5.862;2022-12-10T02:06:01;100810.06;;;4.77
64790;BMP280;51223;51.816;5.862;2022-12-10T02:08:43;100814.75;;;5.20
64790;BMP280;51223;51.816;5.862;2022-12-10T02:12:04;100809.03;;;4.99
64790;BMP280;51223;51.816;5.862;2022-12-10T02:14:25;100811.59;;;5.33
64790;BMP280;51223;51.816;5.862;2022-12-10T02:17:03;100811.06;;;5.02
64790;BMP280;51223;51.816;5.862;2022-12-10T02:22:14;100818.09;;;4.34
64790;BMP280;51223;51.816;5.862;2022-12-10T02:24:41;100820.47;;;5.67
64790;BMP280;51223;51.816;5.862;2022-12-10T02:27:16;100817.47;;;4.51
64790;BMP280;51223;51.816;5.862;2022-12-10T02:29:43;100815.16;;;4.64
64790;BMP280;51223;51.816;5.862;2022-12-10T02:32:13;100819.75;;;4.42
64790;BMP280;51223;51.816;5.862;2022-12-10T02:34:48;100817.94;;;3.46
64790;BMP280;51223;51.816;5.862;2022-12-10T02:37:20;100812.31;;;2.37
64790;BMP280;51223;51.816;5.862;2022-12-10T02:39:48;100804.16;;;2.21
64790;BMP280;51223;51.816;5.862;2022-12-10T02:42:16;100813.50;;;2.13
64790;BMP280;51223;51.816;5.862;2022-12-10T02:44:43;100812.28;;;4.06
64790;BMP280;51223;51.816;5.862;2022-12-10T02:47:11;100809.13;;;5.17
64790;BMP280;51223;51.816;5.862;2022-12-10T02:49:40;100814.03;;;4.25
64790;BMP280;51223;51.816;5.862;2022-12-10T02:52:08;100812.09;;;5.56
64790;BMP280;51223;51.816;5.862;2022-12-10T02:54:45;100810.38;;;4.17
64790;BMP280;51223;51.816;5.862;2022-12-10T03:00:13;100823.34;;;4.02
64790;BMP280;51223;51.816;5.862;2022-12-10T03:08:14;100815.38;;;5.86
64790;BMP280;51223;51.816;5.862;2022-12-10T03:10:48;100816.22;;;5.04
64790;BMP280;51223;51.816;5.862;2022-12-10T03:13:20;100808.63;;;3.61
64790;BMP280;51223;51.816;5.862;2022-12-10T03:15:48;100811.28;;;3.20
64790;BMP280;51223;51.816;5.862;2022-12-10T03:18:17;100809.84;;;3.34
64790;BMP280;51223;51.816;5.862;2022-12-10T03:20:44;100804.44;;;3.78
64790;BMP280;51223;51.816;5.862;2022-12-10T03:23:15;100808.50;;;3.20
64790;BMP280;51223;51.816;5.862;2022-12-10T03:25:42;100812.84;;;2.69
64790;BMP280;51223;51.816;5.862;2022-12-10T03:28:08;100808.66;;;4.42
64790;BMP280;51223;51.816;5.862;2022-12-10T03:30:36;100814.56;;;3.30
64790;BMP280;51223;51.816;5.862;2022-12-10T03:33:02;100815.50;;;3.74
64790;BMP280;51223;51.816;5.862;2022-12-10T03:35:30;100818.75;;;4.68
64790;BMP280;51223;51.816;5.862;2022-12-10T03:37:56;100819.50;;;5.20
64790;BMP280;51223;51.816;5.862;2022-12-10T03:40:23;100812.59;;;4.96
64790;BMP280;51223;51.816;5.862;2022-12-10T03:42:50;100821.91;;;4.15
64790;BMP280;51223;51.816;5.862;2022-12-10T03:45:19;100826.69;;;3.81
64790;BMP280;51223;51.816;5.862;2022-12-10T03:47:45;100818.69;;;4.57
64790;BMP280;51223;51.816;5.862;2022-12-10T03:50:11;100824.09;;;4.95
64790;BMP280;51223;51.816;5.862;2022-12-10T03:52:36;100822.19;;;4.47
64790;BMP280;51223;51.816;5.862;2022-12-10T03:55:05;100830.63;;;3.80
64790;BMP280;51223;51.816;5.862;2022-12-10T03:57:32;100822.38;;;5.45
64790;BMP280;51223;51.816;5.862;2022-12-10T03:59:58;100818.22;;;5.10
64790;BMP280;51223;51.816;5.862;2022-12-10T04:02:24;100824.22;;;5.16
64790;BMP280;51223;51.816;5.862;2022-12-10T04:04:50;100809.94;;;4.52
64790;BMP280;51223;51.816;5.862;2022-12-10T04:07:16;100820.91;;;5.72
64790;BMP280;51223;51.816;5.862;2022-12-10T04:09:42;100812.31;;;5.19
64790;BMP280;51223;51.816;5.862;2022-12-10T04:12:08;100806.16;;;4.30
64790;BMP280;51223;51.816;5.862;2022-12-10T04:14:33;100808.53;;;3.24
64790;BMP280;51223;51.816;5.862;2022-12-10T04:17:18;100806.50;;;4.25
64790;BMP280;51223;51.816;5.862;2022-12-10T04:19:44;100815.09;;;3.12
64790;BMP280;51223;51.816;5.862;2022-12-10T04:22:10;100825.16;;;2.71
64790;BMP280;51223;51.816;5.862;2022-12-10T04:24:55;100826.28;;;3.19
64790;BMP280;51223;51.816;5.862;2022-12-10T04:27:39;100825.31;;;3.35
64790;BMP280;51223;51.816;5.862;2022-12-10T04:30:08;100813.75;;;4.88
64790;BMP280;51223;51.816;5.862;2022-12-10T04:32:35;100815.66;;;4.29
64790;BMP280;51223;51.816;5.862;2022-12-10T04:35:01;100819.34;;;3.33
64790;BMP280;51223;51.816;5.862;2022-12-10T04:37:30;100820.75;;;3.83
64790;BMP280;51223;51.816;5.862;2022-12-10T04:39:56;100825.53;;;4.71
64790;BMP280;51223;51.816;5.862;2022-12-10T04:42:22;100826.00;;;4.32
64790;BMP280;51223;51.816;5.862;2022-12-10T04:44:48;100835.47;;;4.28
64790;BMP280;51223;51.816;5.862;2022-12-10T04:47:14;100839.88;;;3.92
64790;BMP280;51223;51.816;5.862;2022-12-10T04:49:40;100841.31;;;3.78
64790;BMP280;51223;51.816;5.862;2022-12-10T04:52:07;100837.84;;;4.26
64790;BMP280;51223;51.816;5.862;2022-12-10T04:54:33;100850.16;;;4.28
64790;BMP280;51223;51.816;5.862;2022-12-10T04:57:02;100844.16;;;4.22
64790;BMP280;51223;51.816;5.862;2022-12-10T04:59:28;100844.38;;;3.70
64790;BMP280;51223;51.816;5.862;2022-12-10T05:01:54;100844.25;;;3.03
64790;BMP280;51223;51.816;5.862;2022-12-10T05:04:19;100853.88;;;3.69
64790;BMP280;51223;51.816;5.862;2022-12-10T05:06:47;100853.25;;;3.52
64790;BMP280;51223;51.816;5.862;2022-12-10T05:09:14;100850.34;;;3.42
64790;BMP280;51223;51.816;5.862;2022-12-10T05:11:40;100852.16;;;3.91
64790;BMP280;51223;51.816;5.862;2022-12-10T05:14:08;100855.94;;;4.09
64790;BMP280;51223;51.816;5.862;2022-12-10T05:16:35;100854.31;;;4.48
64790;BMP280;51223;51.816;5.862;2022-12-10T05:19:01;100855.13;;;4.08
64790;BMP280;51223;51.816;5.862;2022-12-10T05:21:30;100853.34;;;4.30
64790;BMP280;51223;51.816;5.862;2022-12-10T05:24:18;100855.28;;;4.70
64790;BMP280;51223;51.816;5.862;2022-12-10T05:26:44;100848.78;;;5.03
64790;BMP280;51223;51.816;5.862;2022-12-10T05:29:12;100850.78;;;5.10
64790;BMP280;51223;51.816;5.862;2022-12-10T05:31:38;100847.03;;;4.81
64790;BMP280;51223;51.816;5.862;2022-12-10T05:34:03;100850.41;;;5.11
64790;BMP280;51223;51.816;5.862;2022-12-10T05:36:30;100851.22;;;5.15
64790;BMP280;51223;51.816;5.862;2022-12-10T05:39:00;100852.31;;;4.45
64790;BMP280;51223;51.816;5.862;2022-12-10T05:41:29;100848.75;;;4.45
64790;BMP280;51223;51.816;5.862;2022-12-10T05:43:56;100848.25;;;3.95
64790;BMP280;51223;51.816;5.862;2022-12-10T05:46:26;100849.22;;;3.46
64790;BMP280;51223;51.816;5.862;2022-12-10T05:48:52;100846.94;;;3.85
64790;BMP280;51223;51.816;5.862;2022-12-10T05:51:21;100843.31;;;4.15
64790;BMP280;51223;51.816;5.862;2022-12-10T05:53:47;100850.66;;;4.00
64790;BMP280;51223;51.816;5.862;2022-12-10T05:56:17;100846.88;;;4.19
64790;BMP280;51223;51.816;5.862;2022-12-10T05:58:50;100847.28;;;3.50
64790;BMP280;51223;51.816;5.862;2022-12-10T06:01:21;100846.28;;;3.99
64790;BMP280;51223;51.816;5.862;2022-12-10T06:03:47;100850.53;;;4.27
64790;BMP280;51223;51.816;5.862;2022-12-10T06:06:13;100853.38;;;3.93
64790;BMP280;51223;51.816;5.862;2022-12-10T06:08:42;100846.13;;;5.21
64790;BMP280;51223;51.816;5.862;2022-12-10T06:11:11;100844.50;;;4.62
64790;BMP280;51223;51.816;5.862;2022-12-10T06:13:42;100851.09;;;4.91
64790;BMP280;51223;51.816;5.862;2022-12-10T06:16:12;100851.03;;;4.39
64790;BMP280;51223;51.816;5.862;2022-12-10T06:22:21;100839.19;;;4.97
64790;BMP280;51223;51.816;5.862;2022-12-10T06:42:32;100857.06;;;5.72
64790;BMP280;51223;51.816;5.862;2022-12-10T06:58:55;100872.13;;;4.92
64790;BMP280;51223;51.816;5.862;2022-12-10T07:01:24;100878.44;;;4.85
64790;BMP280;51223;51.816;5.862;2022-12-10T07:03:55;100876.81;;;4.36
64790;BMP280;51223;51.816;5.862;2022-12-10T07:06:22;100875.81;;;5.06
64790;BMP280;51223;51.816;5.862;2022-12-10T07:08:48;100881.59;;;5.49
64790;BMP280;51223;51.816;5.862;2022-12-10T07:11:15;100876.72;;;5.28
64790;BMP280;51223;51.816;5.862;2022-12-10T07:13:41;100886.47;;;5.01
64790;BMP280;51223;51.816;5.862;2022-12-10T07:16:15;100894.28;;;3.40
64790;BMP280;51223;51.816;5.862;2022-12-10T07:18:41;100889.34;;;3.56
64790;BMP280;51223;51.816;5.862;2022-12-10T07:23:44;100892.41;;;2.95
64790;BMP280;51223;51.816;5.862;2022-12-10T07:26:10;100907.31;;;2.64
64790;BMP280;51223;51.816;5.862;2022-12-10T07:28:36;100896.72;;;2.46
64790;BMP280;51223;51.816;5.862;2022-12-10T07:31:03;100901.53;;;2.30
64790;BMP280;51223;51.816;5.862;2022-12-10T07:33:29;100896.53;;;1.97
64790;BMP280;51223;51.816;5.862;2022-12-10T07:35:55;100900.19;;;2.01
64790;BMP280;51223;51.816;5.862;2022-12-10T07:38:23;100901.50;;;1.69
64790;BMP280;51223;51.816;5.862;2022-12-10T07:40:50;100902.16;;;1.46
64790;BMP280;51223;51.816;5.862;2022-12-10T07:43:16;100900.72;;;1.52
64790;BMP280;51223;51.816;5.862;2022-12-10T07:45:43;100899.16;;;1.71
64790;BMP280;51223;51.816;5.862;2022-12-10T07:48:10;100901.50;;;1.53
64790;BMP280;51223;51.816;5.862;2022-12-10T07:50:37;100908.78;;;0.79
64790;BMP280;51223;51.816;5.862;2022-12-10T07:53:06;100907.97;;;0.62
64790;BMP280;51223;51.816;5.862;2022-12-10T07:55:32;100907.84;;;0.27
64790;BMP280;51223;51.816;5.862;2022-12-10T07:57:58;100896.81;;;0.27
64790;BMP280;51223;51.816;5.862;2022-12-10T08:00:27;100894.22;;;0.19
64790;BMP280;51223;51.816;5.862;2022-12-10T08:06:16;100906.72;;;0.44
64790;BMP280;51223;51.816;5.862;2022-12-10T08:08:43;100905.22;;;0.62
64790;BMP280;51223;51.816;5.862;2022-12-10T08:11:11;100910.81;;;0.50
64790;BMP280;51223;51.816;5.862;2022-12-10T08:13:38;100911.25;;;0.52
64790;BMP280;51223;51.816;5.862;2022-12-10T08:18:37;100909.94;;;0.46
64790;BMP280;51223;51.816;5.862;2022-12-10T08:21:15;100915.44;;;0.46
64790;BMP280;51223;51.816;5.862;2022-12-10T08:23:42;100909.03;;;0.42
64790;BMP280;51223;51.816;5.862;2022-12-10T08:26:10;100908.31;;;0.45
64790;BMP280;51223;51.816;5.862;2022-12-10T08:28:37;100908.63;;;0.28
64790;BMP280;51223;51.816;5.862;2022-12-10T08:31:03;100910.97;;;0.42
64790;BMP280;51223;51.816;5.862;2022-12-10T08:33:33;100917.97;;;0.39
64790;BMP280;51223;51.816;5.862;2022-12-10T08:35:59;100918.66;;;0.48
64790;BMP280;51223;51.816;5.862;2022-12-10T08:38:26;100917.97;;;0.39
64790;BMP280;51223;51.816;5.862;2022-12-10T08:40:52;100917.13;;;0.07
64790;BMP280;51223;51.816;5.862;2022-12-10T08:43:18;100914.66;;;0.18
64790;BMP280;51223;51.816;5.862;2022-12-10T08:45:44;100916.47;;;0.26
64790;BMP280;51223;51.816;5.862;2022-12-10T08:48:09;100913.97;;;0.21
64790;BMP280;51223;51.816;5.862;2022-12-10T08:50:36;100917.97;;;0.39
64790;BMP280;51223;51.816;5.862;2022-12-10T08:53:03;100915.97;;;0.52
64790;BMP280;51223;51.816;5.862;2022-12-10T08:55:28;100918.88;;;0.27
64790;BMP280;51223;51.816;5.862;2022-12-10T08:57:56;100915.53;;;0.50
64790;BMP280;51223;51.816;5.862;2022-12-10T09:00:22;100916.38;;;0.38
64790;BMP280;51223;51.816;5.862;2022-12-10T09:02:48;100912.00;;;0.37
64790;BMP280;51223;51.816;5.862;2022-12-10T09:05:14;100913.16;;;0.36
64790;BMP280;51223;51.816;5.862;2022-12-10T09:07:39;100917.31;;;0.42
64790;BMP280;51223;51.816;5.862;2022-12-10T09:10:06;100910.63;;;0.43
64790;BMP280;51223;51.816;5.862;2022-12-10T09:12:34;100913.25;;;0.24
64790;BMP280;51223;51.816;5.862;2022-12-10T09:15:00;100906.03;;;0.19
64790;BMP280;51223;51.816;5.862;2022-12-10T09:17:26;100907.94;;;0.31
64790;BMP280;51223;51.816;5.862;2022-12-10T09:19:52;100921.19;;;0.25
64790;BMP280;51223;51.816;5.862;2022-12-10T09:22:18;100915.22;;;0.39
64790;BMP280;51223;51.816;5.862;2022-12-10T09:24:44;100927.06;;;0.40
64790;BMP280;51223;51.816;5.862;2022-12-10T09:27:10;100917.41;;;0.18
64790;BMP280;51223;51.816;5.862;2022-12-10T09:29:36;100916.06;;;0.12
64790;BMP280;51223;51.816;5.862;2022-12-10T09:32:01;100915.06;;;0.32
64790;BMP280;51223;51.816;5.862;2022-12-10T09:34:27;100915.22;;;0.39
64790;BMP280;51223;51.816;5.862;2022-12-10T09:36:53;100918.47;;;0.41
64790;BMP280;51223;51.816;5.862;2022-12-10T09:39:19;100920.63;;;0.36
64790;BMP280;51223;51.816;5.862;2022-12-10T09:44:36;100929.16;;;0.15
64790;BMP280;51223;51.816;5.862;2022-12-10T09:47:05;100924.78;;;0.14
64790;BMP280;51223;51.816;5.862;2022-12-10T09:52:22;100920.97;;;0.18
64790;BMP280;51223;51.816;5.862;2022-12-10T09:57:45;100927.41;;;0.22
64790;BMP280;51223;51.816;5.862;2022-12-10T10:02:48;100922.69;;;0.23
64790;BMP280;51223;51.816;5.862;2022-12-10T10:05:27;100927.41;;;0.38
64790;BMP280;51223;51.816;5.862;2022-12-10T10:07:57;100922.56;;;0.47
64790;BMP280;51223;51.816;5.862;2022-12-10T10:10:29;100915.88;;;0.48
64790;BMP280;51223;51.816;5.862;2022-12-10T10:13:14;100924.66;;;0.38
64790;BMP280;51223;51.816;5.862;2022-12-10T10:15:43;100919.72;;;0.44
64790;BMP280;51223;51.816;5.862;2022-12-10T10:18:30;100918.56;;;0.45
64790;BMP280;51223;51.816;5.862;2022-12-10T10:20:59;100920.88;;;0.58
64790;BMP280;51223;51.816;5.862;2022-12-10T10:23:25;100925.25;;;0.59
64790;BMP280;51223;51.816;5.862;2022-12-10T10:25:51;100924.53;;;0.62
64790;BMP280;51223;51.816;5.862;2022-12-10T10:28:20;100921.16;;;0.53
64790;BMP280;51223;51.816;5.862;2022-12-10T10:30:46;100926.59;;;0.66
64790;BMP280;51223;51.816;5.862;2022-12-10T10:33:13;100923.75;;;0.62
64790;BMP280;51223;51.816;5.862;2022-12-10T10:35:56;100917.59;;;0.69
64790;BMP280;51223;51.816;5.862;2022-12-10T10:38:28;100925.19;;;0.72
64790;BMP280;51223;51.816;5.862;2022-12-10T10:41:03;100927.75;;;0.64
64790;BMP280;51223;51.816;5.862;2022-12-10T10:43:41;100922.84;;;0.58
64790;BMP280;51223;51.816;5.862;2022-12-10T10:46:17;100915.53;;;0.50
64790;BMP280;51223;51.816;5.862;2022-12-10T10:48:46;100919.53;;;0.52
64790;BMP280;51223;51.816;5.862;2022-12-10T10:56:24;100921.59;;;0.12
64790;BMP280;51223;51.816;5.862;2022-12-10T11:01:50;100913.84;;;-0.11
64790;BMP280;51223;51.816;5.862;2022-12-10T11:04:22;100903.53;;;0.14
64790;BMP280;51223;51.816;5.862;2022-12-10T11:06:55;100915.31;;;0.27
64790;BMP280;51223;51.816;5.862;2022-12-10T11:09:29;100903.94;;;0.28
64790;BMP280;51223;51.816;5.862;2022-12-10T11:15:01;100896.97;;;0.35
64790;BMP280;51223;51.816;5.862;2022-12-10T11:17:27;100896.16;;;0.34
64790;BMP280;51223;51.816;5.862;2022-12-10T11:22:30;100890.34;;;0.51
64790;BMP280;51223;51.816;5.862;2022-12-10T11:24:59;100886.63;;;0.59
64790;BMP280;51223;51.816;5.862;2022-12-10T11:28:21;100874.97;;;0.66
64790;BMP280;51223;51.816;5.862;2022-12-10T11:31:11;100885.19;;;0.66
64790;BMP280;51223;51.816;5.862;2022-12-10T11:34:03;100875.59;;;0.59
64790;BMP280;51223;51.816;5.862;2022-12-10T11:42:17;100878.34;;;0.59
64790;BMP280;51223;51.816;5.862;2022-12-10T11:44:49;100871.41;;;0.66
64790;BMP280;51223;51.816;5.862;2022-12-10T11:47:40;100881.00;;;0.72
64790;BMP280;51223;51.816;5.862;2022-12-10T11:50:26;100882.16;;;0.71
64790;BMP280;51223;51.816;5.862;2022-12-10T11:53:12;100883.06;;;0.75
64790;BMP280;51223;51.816;5.862;2022-12-10T12:01:46;100876.75;;;0.74
64790;BMP280;51223;51.816;5.862;2022-12-10T12:13:20;100880.50;;;0.82
64790;BMP280;51223;51.816;5.862;2022-12-10T12:16:09;100879.22;;;0.79
64790;BMP280;51223;51.816;5.862;2022-12-10T12:18:46;100883.06;;;0.75
64790;BMP280;51223;51.816;5.862;2022-12-10T12:21:14;100884.75;;;0.63
64790;BMP280;51223;51.816;5.862;2022-12-10T12:26:53;100880.31;;;0.75
64790;BMP280;51223;51.816;5.862;2022-12-10T12:29:26;100879.84;;;0.73
64790;BMP280;51223;51.816;5.862;2022-12-10T12:38:00;100880.28;;;0.43
64790;BMP280;51223;51.816;5.862;2022-12-10T12:40:52;100867.56;;;0.70
64790;BMP280;51223;51.816;5.862;2022-12-10T12:46:26;100868.81;;;0.73
64790;BMP280;51223;51.816;5.862;2022-12-10T12:49:04;100865.00;;;0.77
64790;BMP280;51223;51.816;5.862;2022-12-10T12:57:58;100865.00;;;0.61
64790;BMP280;51223;51.816;5.862;2022-12-10T13:00:28;100872.03;;;0.75
64790;BMP280;51223;51.816;5.862;2022-12-10T13:03:33;100867.13;;;0.68
64790;BMP280;51223;51.816;5.862;2022-12-10T13:06:19;100868.63;;;0.66
64790;BMP280;51223;51.816;5.862;2022-12-10T13:08:52;100872.03;;;0.75
64790;BMP280;51223;51.816;5.862;2022-12-10T13:11:31;100871.31;;;0.62
64790;BMP280;51223;51.816;5.862;2022-12-10T13:21:58;100874.88;;;0.62
64790;BMP280;51223;51.816;5.862;2022-12-10T13:32:19;100870.16;;;0.79
64790;BMP280;51223;51.816;5.862;2022-12-10T13:34:46;100879.41;;;0.71
64790;BMP280;51223;51.816;5.862;2022-12-10T13:37:28;100882.16;;;0.71
64790;BMP280;51223;51.816;5.862;2022-12-10T13:42:40;100881.53;;;0.61
64790;BMP280;51223;51.816;5.862;2022-12-10T13:45:33;100880.13;;;0.68
64790;BMP280;51223;51.816;5.862;2022-12-10T13:50:49;100871.31;;;0.78
64790;BMP280;51223;51.816;5.862;2022-12-10T14:01:21;100883.75;;;0.40
64790;BMP280;51223;51.816;5.862;2022-12-10T14:04:10;100868.63;;;0.66
64790;BMP280;51223;51.816;5.862;2022-12-10T14:06:40;100883.50;;;0.61
64790;BMP280;51223;51.816;5.862;2022-12-10T14:09:20;100875.94;;;0.74
64790;BMP280;51223;51.816;5.862;2022-12-10T14:11:54;100882.16;;;0.71
64790;BMP280;51223;51.816;5.862;2022-12-10T14:14:26;100896.31;;;0.53
64790;BMP280;51223;51.816;5.862;2022-12-10T14:16:55;100894.38;;;0.70
64790;BMP280;51223;51.816;5.862;2022-12-10T14:19:23;100895.34;;;0.61
64790;BMP280;51223;51.816;5.862;2022-12-10T14:21:51;100892.72;;;0.81
64790;BMP280;51223;51.816;5.862;2022-12-10T14:24:35;100891.28;;;0.87
64790;BMP280;51223;51.816;5.862;2022-12-10T14:27:19;100897.31;;;0.77
64790;BMP280;51223;51.816;5.862;2022-12-10T14:29:57;100892.50;;;0.74
64790;BMP280;51223;51.816;5.862;2022-12-10T14:32:37;100896.50;;;0.76
64790;BMP280;51223;51.816;5.862;2022-12-10T14:35:05;100894.91;;;0.75
64790;BMP280;51223;51.816;5.862;2022-12-10T14:37:35;100889.03;;;0.77
64790;BMP280;51223;51.816;5.862;2022-12-10T14:40:04;100895.47;;;0.81
64790;BMP280;51223;51.816;5.862;2022-12-10T14:42:31;100902.13;;;0.80
64790;BMP280;51223;51.816;5.862;2022-12-10T14:45:00;100896.31;;;0.69
64790;BMP280;51223;51.816;5.862;2022-12-10T14:47:38;100901.97;;;0.88
64790;BMP280;51223;51.816;5.862;2022-12-10T14:50:11;100900.19;;;0.80
64790;BMP280;51223;51.816;5.862;2022-12-10T14:52:51;100905.81;;;0.84
64790;BMP280;51223;51.816;5.862;2022-12-10T14:55:20;100902.94;;;0.80
64790;BMP280;51223;51.816;5.862;2022-12-10T14:57:51;100903.34;;;0.67
64790;BMP280;51223;51.816;5.862;2022-12-10T15:00:21;100913.06;;;0.76
64790;BMP280;51223;51.816;5.862;2022-12-10T15:02:53;100901.03;;;0.69
64790;BMP280;51223;51.816;5.862;2022-12-10T15:05:33;100896.50;;;0.76
64790;BMP280;51223;51.816;5.862;2022-12-10T15:08:04;100890.63;;;0.78
64790;BMP280;51223;51.816;5.862;2022-12-10T15:10:37;100894.31;;;0.82
64790;BMP280;51223;51.816;5.862;2022-12-10T15:13:05;100894.19;;;0.78
64790;BMP280;51223;51.816;5.862;2022-12-10T15:15:36;100893.16;;;0.83
64790;BMP280;51223;51.816;5.862;2022-12-10T15:18:09;100894.66;;;0.80
64790;BMP280;51223;51.816;5.862;2022-12-10T15:23:33;100905.22;;;0.78
64790;BMP280;51223;51.816;5.862;2022-12-10T15:26:18;100907.19;;;0.62
64790;BMP280;51223;51.816;5.862;2022-12-10T15:28:46;100906.38;;;0.61
64790;BMP280;51223;51.816;5.862;2022-12-10T15:31:30;100897.22;;;0.73
64790;BMP280;51223;51.816;5.862;2022-12-10T15:34:11;100896.50;;;0.76
64790;BMP280;51223;51.816;5.862;2022-12-10T15:36:56;100906.69;;;0.88
64790;BMP280;51223;51.816;5.862;2022-12-10T15:39:27;100904.19;;;0.83
64790;BMP280;51223;51.816;5.862;2022-12-10T15:41:56;100905.34;;;0.82
64790;BMP280;51223;51.816;5.862;2022-12-10T15:47:08;100916.19;;;0.75
64790;BMP280;51223;51.816;5.862;2022-12-10T15:49:37;100909.59;;;0.79
64790;BMP280;51223;51.816;5.862;2022-12-10T15:52:04;100911.47;;;0.75
64790;BMP280;51223;51.816;5.862;2022-12-10T15:54:34;100903.75;;;0.81
64790;BMP280;51223;51.816;5.862;2022-12-10T15:57:11;100910.56;;;0.55
64790;BMP280;51223;51.816;5.862;2022-12-10T15:59:37;100908.25;;;0.73
64790;BMP280;51223;51.816;5.862;2022-12-10T16:02:25;100914.44;;;0.82
64790;BMP280;51223;51.816;5.862;2022-12-10T16:04:52;100918.00;;;0.83
64790;BMP280;51223;51.816;5.862;2022-12-10T16:07:18;100915.00;;;0.44
64790;BMP280;51223;51.816;5.862;2022-12-10T16:09:45;100907.47;;;0.73
64790;BMP280;51223;51.816;5.862;2022-12-10T16:12:12;100910.56;;;0.71
64790;BMP280;51223;51.816;5.862;2022-12-10T16:14:43;100917.06;;;0.79
64790;BMP280;51223;51.816;5.862;2022-12-10T16:17:11;100915.59;;;0.81
64790;BMP280;51223;51.816;5.862;2022-12-10T16:19:37;100928.38;;;0.74
64790;BMP280;51223;51.816;5.862;2022-12-10T16:22:05;100924.31;;;0.83
64790;BMP280;51223;51.816;5.862;2022-12-10T16:24:31;100927.63;;;0.89
64790;BMP280;51223;51.816;5.862;2022-12-10T16:26:57;100930.03;;;0.90
64790;BMP280;51223;51.816;5.862;2022-12-10T16:29:23;100918.88;;;0.87
64790;BMP280;51223;51.816;5.862;2022-12-10T16:31:49;100913.38;;;0.87
64790;BMP280;51223;51.816;5.862;2022-12-10T16:34:15;100908.75;;;0.91
64790;BMP280;51223;51.816;5.862;2022-12-10T16:36:41;100921.28;;;0.88
64790;BMP280;51223;51.816;5.862;2022-12-10T16:39:07;100917.59;;;0.69
64790;BMP280;51223;51.816;5.862;2022-12-10T16:41:32;100926.72;;;0.85
64790;BMP280;51223;51.816;5.862;2022-12-10T16:44:01;100926.72;;;0.85
64790;BMP280;51223;51.816;5.862;2022-12-10T16:46:27;100929.66;;;0.92
64790;BMP280;51223;51.816;5.862;2022-12-10T16:48:53;100932.91;;;0.22
64790;BMP280;51223;51.816;5.862;2022-12-10T16:51:29;100919.91;;;0.51
64790;BMP280;51223;51.816;5.862;2022-12-10T16:53:55;100916.63;;;0.61
64790;BMP280;51223;51.816;5.862;2022-12-10T16:56:21;100918.41;;;0.69
64790;BMP280;51223;51.816;5.862;2022-12-10T16:58:48;100912.03;;;0.81
64790;BMP280;51223;51.816;5.862;2022-12-10T17:01:25;100931.69;;;0.79
64790;BMP280;51223;51.816;5.862;2022-12-10T17:03:54;100925.72;;;0.77